createdAt,value
2018-08-22T00:00:19.005Z,40.30
2018-08-22T00:02:47.389Z,40.30
2018-08-22T00:05:15.855Z,40.50
2018-08-22T00:07:44.198Z,40.60
2018-08-22T00:10:12.522Z,40.50
2018-08-22T00:12:40.822Z,40.40
2018-08-22T00:15:09.274Z,40.50
2018-08-22T00:17:37.554Z,40.40
2018-08-22T00:20:05.887Z,40.30
2018-08-22T00:22:34.288Z,40.30
2018-08-22T00:25:02.652Z,40.20
2018-08-22T00:27:30.977Z,40.20
2018-08-22T00:29:59.263Z,40.20
2018-08-22T00:32:27.585Z,40.10
2018-08-22T00:34:55.942Z,40.10
2018-08-22T00:37:24.298Z,40.00
2018-08-22T00:39:52.622Z,40.00
2018-08-22T00:42:20.903Z,40.10
2018-08-22T00:44:49.270Z,40.20
2018-08-22T00:47:17.783Z,40.10
2018-08-22T00:49:46.207Z,40.20
2018-08-22T00:52:14.606Z,40.20
2018-08-22T00:54:43.087Z,40.20
2018-08-22T00:57:11.535Z,40.20
2018-08-22T00:59:39.965Z,40.30
2018-08-22T01:02:08.266Z,40.30
2018-08-22T01:04:36.543Z,40.30
2018-08-22T01:07:04.808Z,40.30
2018-08-22T01:09:33.103Z,40.30
2018-08-22T01:12:01.345Z,40.20
2018-08-22T01:14:29.683Z,40.30
2018-08-22T01:16:57.961Z,40.30
2018-08-22T01:19:26.334Z,40.40
2018-08-22T01:21:54.599Z,40.50
2018-08-22T01:24:22.909Z,40.40
2018-08-22T01:26:51.166Z,40.50
2018-08-22T01:29:19.440Z,40.50
2018-08-22T01:31:47.691Z,40.60
2018-08-22T01:34:16.051Z,40.60
2018-08-22T01:36:44.395Z,40.60
2018-08-22T01:39:12.727Z,40.80
2018-08-22T01:41:41.205Z,40.80
2018-08-22T01:44:09.571Z,40.90
2018-08-22T01:46:37.966Z,41.00
2018-08-22T01:49:06.404Z,41.10
2018-08-22T01:51:34.725Z,41.10
2018-08-22T01:54:03.070Z,41.10
2018-08-22T01:56:31.482Z,41.20
2018-08-22T01:58:59.854Z,41.20
2018-08-22T02:01:28.263Z,41.30
2018-08-22T02:03:56.669Z,41.50
2018-08-22T02:06:24.982Z,41.50
2018-08-22T02:08:53.305Z,41.70
2018-08-22T02:11:21.618Z,41.70
2018-08-22T02:13:49.994Z,42.10
2018-08-22T02:16:18.294Z,41.80
2018-08-22T02:18:46.626Z,42.10
2018-08-22T02:21:15.030Z,41.90
2018-08-22T02:23:43.616Z,42.00
2018-08-22T02:26:12.185Z,42.00
2018-08-22T02:28:40.857Z,42.00
2018-08-22T02:31:09.178Z,42.00
2018-08-22T02:33:37.537Z,42.10
2018-08-22T02:36:05.966Z,42.00
2018-08-22T02:38:34.359Z,42.20
2018-08-22T02:41:02.700Z,42.30
2018-08-22T02:43:31.008Z,42.30
2018-08-22T02:45:59.318Z,42.30
2018-08-22T02:48:27.772Z,42.40
2018-08-22T02:50:56.178Z,42.60
2018-08-22T02:53:24.499Z,42.60
2018-08-22T02:55:52.913Z,42.80
2018-08-22T02:58:21.355Z,42.90
2018-08-22T03:00:49.889Z,43.00
2018-08-22T03:03:18.269Z,42.90
2018-08-22T03:05:46.776Z,42.90
2018-08-22T03:08:15.058Z,42.90
2018-08-22T03:10:43.376Z,43.00
2018-08-22T03:13:11.763Z,43.10
2018-08-22T03:15:40.238Z,43.10
2018-08-22T03:18:08.532Z,43.20
2018-08-22T03:20:36.891Z,43.30
2018-08-22T03:23:05.211Z,43.30
2018-08-22T03:25:33.564Z,44.00
2018-08-22T03:28:02.016Z,43.50
2018-08-22T03:30:30.321Z,43.50
2018-08-22T03:32:58.684Z,43.60
2018-08-22T03:35:27.145Z,43.60
2018-08-22T03:37:55.647Z,43.70
2018-08-22T03:40:23.975Z,43.90
2018-08-22T03:42:52.442Z,44.60
2018-08-22T03:45:20.795Z,44.00
2018-08-22T03:47:49.220Z,44.00
2018-08-22T03:50:17.640Z,44.00
2018-08-22T03:52:46.013Z,44.20
2018-08-22T03:55:14.321Z,44.30
2018-08-22T03:57:42.680Z,44.20
2018-08-22T04:00:11.326Z,44.30
2018-08-22T04:02:39.906Z,44.40
2018-08-22T04:05:08.340Z,44.30
2018-08-22T04:07:36.650Z,44.40
2018-08-22T04:10:05.303Z,44.50
2018-08-22T04:12:33.606Z,44.50
2018-08-22T04:15:01.960Z,44.50
2018-08-22T04:17:33.868Z,44.60
2018-08-22T04:20:02.278Z,44.70
2018-08-22T04:22:30.728Z,44.70
2018-08-22T04:24:59.144Z,44.80
2018-08-22T04:27:27.499Z,44.80
2018-08-22T04:29:55.863Z,44.90
2018-08-22T04:32:24.399Z,45.00
2018-08-22T04:34:52.779Z,45.00
2018-08-22T04:37:21.116Z,45.10
2018-08-22T04:39:49.580Z,45.20
2018-08-22T04:42:17.971Z,45.30
2018-08-22T04:44:47.030Z,45.70
2018-08-22T04:47:15.447Z,45.20
2018-08-22T04:49:43.794Z,45.20
2018-08-22T04:52:12.468Z,45.20
2018-08-22T04:54:40.814Z,45.40
2018-08-22T04:57:09.131Z,45.30
2018-08-22T04:59:37.496Z,45.20
2018-08-22T05:02:05.882Z,45.40
2018-08-22T05:04:34.199Z,45.50
2018-08-22T05:07:02.493Z,45.50
2018-08-22T05:09:30.884Z,45.60
2018-08-22T05:11:59.187Z,45.70
2018-08-22T05:14:27.503Z,45.70
2018-08-22T05:16:55.874Z,45.70
2018-08-22T05:19:24.194Z,45.60
2018-08-22T05:21:52.643Z,45.70
2018-08-22T05:24:20.959Z,45.90
2018-08-22T05:26:49.386Z,46.00
2018-08-22T05:29:17.764Z,45.80
2018-08-22T05:31:46.190Z,45.80
2018-08-22T05:34:14.629Z,46.00
2018-08-22T05:36:42.975Z,45.90
2018-08-22T05:39:12.866Z,45.90
2018-08-22T05:41:41.663Z,45.80
2018-08-22T05:44:10.187Z,45.70
2018-08-22T05:46:38.590Z,45.60
2018-08-22T05:49:07.065Z,45.60
2018-08-22T05:51:35.364Z,45.60
2018-08-22T05:54:03.848Z,45.50
2018-08-22T05:56:32.196Z,45.50
2018-08-22T05:59:00.538Z,45.40
2018-08-22T06:01:28.988Z,45.50
2018-08-22T06:03:57.294Z,45.40
2018-08-22T06:06:25.675Z,45.40
2018-08-22T06:08:54.074Z,45.30
2018-08-22T06:11:22.524Z,45.20
2018-08-22T06:13:50.899Z,45.40
2018-08-22T06:16:19.231Z,45.80
2018-08-22T06:18:47.530Z,45.20
2018-08-22T06:21:15.888Z,45.20
2018-08-22T06:23:44.203Z,45.20
2018-08-22T06:26:12.563Z,45.20
2018-08-22T06:28:40.851Z,45.00
2018-08-22T06:31:09.149Z,45.00
2018-08-22T06:33:37.467Z,44.80
2018-08-22T06:36:05.842Z,44.70
2018-08-22T06:38:34.142Z,44.90
2018-08-22T06:41:02.439Z,44.80
2018-08-22T06:43:30.808Z,44.80
2018-08-22T06:45:59.143Z,44.70
2018-08-22T06:48:27.483Z,44.60
2018-08-22T06:50:55.806Z,44.50
2018-08-22T06:53:24.115Z,44.60
2018-08-22T06:55:52.592Z,44.40
2018-08-22T06:58:20.983Z,44.30
2018-08-22T07:00:49.438Z,44.10
2018-08-22T07:03:17.940Z,44.10
2018-08-22T07:05:46.380Z,43.90
2018-08-22T07:08:14.846Z,43.80
2018-08-22T07:10:43.235Z,43.80
2018-08-22T07:13:11.582Z,43.70
2018-08-22T07:15:39.893Z,43.70
2018-08-22T07:18:08.220Z,43.10
2018-08-22T07:20:36.546Z,43.00
2018-08-22T07:23:04.867Z,42.90
2018-08-22T07:25:33.163Z,42.70
2018-08-22T07:28:01.829Z,42.50
2018-08-22T07:30:30.120Z,42.30
2018-08-22T07:32:58.497Z,42.00
2018-08-22T07:35:26.955Z,41.80
2018-08-22T07:37:55.297Z,41.70
2018-08-22T07:40:23.714Z,41.50
2018-08-22T07:42:52.185Z,40.90
2018-08-22T07:45:20.574Z,40.20
2018-08-22T07:47:48.939Z,40.10
2018-08-22T07:50:17.443Z,40.00
2018-08-22T07:52:52.154Z,39.90
2018-08-22T07:55:20.466Z,39.80
2018-08-22T07:57:48.819Z,39.60
2018-08-22T08:00:17.188Z,38.90
2018-08-22T08:02:45.478Z,39.10
2018-08-22T08:05:13.770Z,38.80
2018-08-22T08:07:42.342Z,38.60
2018-08-22T08:10:16.950Z,38.30
2018-08-22T08:12:45.502Z,37.80
2018-08-22T08:15:14.861Z,37.70
2018-08-22T08:17:43.422Z,37.50
2018-08-22T08:20:11.840Z,37.20
2018-08-22T08:22:40.338Z,37.70
2018-08-22T08:25:08.844Z,36.80
2018-08-22T08:27:37.421Z,36.50
2018-08-22T08:30:06.754Z,36.10
2018-08-22T08:32:35.213Z,35.60
2018-08-22T08:35:03.657Z,35.00
2018-08-22T08:37:32.043Z,34.50
2018-08-22T08:40:00.335Z,33.50
2018-08-22T08:42:28.842Z,31.90
2018-08-22T08:44:57.190Z,30.20
2018-08-22T08:47:26.268Z,29.20
2018-08-22T08:49:54.622Z,27.60
2018-08-22T08:52:23.038Z,26.40
2018-08-22T08:54:52.982Z,25.50
2018-08-22T08:57:21.425Z,24.40
2018-08-22T08:59:49.687Z,22.80
2018-08-22T09:02:18.132Z,22.10
2018-08-22T09:04:46.594Z,21.30
2018-08-22T09:07:14.956Z,20.50
2018-08-22T09:09:43.374Z,19.70
2018-08-22T09:12:11.699Z,18.90
2018-08-22T09:14:40.235Z,18.00
2018-08-22T09:17:08.658Z,17.30
2018-08-22T09:19:37.051Z,16.90
2018-08-22T09:22:05.564Z,16.50
2018-08-22T09:24:34.081Z,16.10
2018-08-22T09:27:02.458Z,15.60
2018-08-22T09:29:31.201Z,15.10
2018-08-22T09:31:59.614Z,14.70
2018-08-22T09:34:28.117Z,14.40
2018-08-22T09:36:56.733Z,14.10
2018-08-22T09:39:25.524Z,13.80
2018-08-22T09:41:53.998Z,13.40
2018-08-22T09:44:22.843Z,13.10
2018-08-22T09:46:51.463Z,12.90
2018-08-22T09:49:19.852Z,12.70
2018-08-22T09:51:48.283Z,12.90
2018-08-22T09:54:16.879Z,12.20
2018-08-22T09:56:45.399Z,11.50
2018-08-22T09:59:13.913Z,11.60
2018-08-22T10:01:43.692Z,11.70
2018-08-22T10:04:12.318Z,11.50
2018-08-22T10:06:43.468Z,11.30
2018-08-22T10:09:14.676Z,11.40
2018-08-22T10:11:43.150Z,11.30
2018-08-22T10:14:11.884Z,11.10
2018-08-22T10:16:40.534Z,11.00
2018-08-22T10:19:08.998Z,10.90
2018-08-22T10:21:37.418Z,10.80
2018-08-22T10:24:06.032Z,10.70
2018-08-22T10:26:34.645Z,10.70
2018-08-22T10:29:03.166Z,10.20
2018-08-22T10:31:31.617Z,10.60
2018-08-22T10:34:00.827Z,10.70
2018-08-22T10:36:29.130Z,10.70
2018-08-22T10:38:57.434Z,10.30
2018-08-22T10:41:25.765Z,10.40
2018-08-22T10:43:54.182Z,10.60
2018-08-22T10:46:22.560Z,10.50
2018-08-22T10:48:50.980Z,10.60
2018-08-22T10:51:19.283Z,10.40
2018-08-22T10:53:47.699Z,10.60
2018-08-22T10:56:16.145Z,10.40
2018-08-22T10:58:44.658Z,11.00
2018-08-22T11:01:13.002Z,11.00
2018-08-22T11:03:41.341Z,11.00
2018-08-22T11:06:09.702Z,10.90
2018-08-22T11:08:38.039Z,10.90
2018-08-22T11:11:06.519Z,10.80
2018-08-22T11:13:34.846Z,10.50
2018-08-22T11:16:03.266Z,10.40
2018-08-22T11:18:31.584Z,10.30
2018-08-22T11:21:11.467Z,10.00
2018-08-22T11:23:51.331Z,10.10
2018-08-22T11:26:30.981Z,9.80
2018-08-22T11:29:10.960Z,9.80
2018-08-22T11:31:50.738Z,9.60
2018-08-22T11:34:30.580Z,9.50
2018-08-22T11:37:03.993Z,9.40
2018-08-22T11:39:32.488Z,9.20
2018-08-22T11:42:00.972Z,9.10
2018-08-22T11:44:29.674Z,8.90
2018-08-22T11:46:57.993Z,8.70
2018-08-22T11:49:26.464Z,8.60
2018-08-22T11:51:55.053Z,8.60
2018-08-22T11:54:23.384Z,9.00
2018-08-22T11:56:51.671Z,8.40
2018-08-22T11:59:20.888Z,8.00
2018-08-22T12:01:49.689Z,8.20
2018-08-22T12:04:18.376Z,8.60
2018-08-22T12:06:46.632Z,8.70
2018-08-22T12:09:14.920Z,8.70
2018-08-22T12:11:43.656Z,8.40
2018-08-22T12:14:12.055Z,8.50
2018-08-22T12:16:40.984Z,8.30
2018-08-22T12:19:10.142Z,8.10
2018-08-22T12:21:38.955Z,8.80
2018-08-22T12:24:07.419Z,8.30
2018-08-22T12:26:36.064Z,9.00
2018-08-22T12:29:04.545Z,9.00
2018-08-22T12:31:33.144Z,8.90
2018-08-22T12:34:01.435Z,8.40
2018-08-22T12:36:29.774Z,8.60
2018-08-22T12:38:58.063Z,8.60
2018-08-22T12:41:26.699Z,8.50
2018-08-22T12:43:55.354Z,8.70
2018-08-22T12:46:23.784Z,8.90
2018-08-22T12:48:52.082Z,9.00
2018-08-22T12:51:20.576Z,9.00
2018-08-22T12:53:48.880Z,9.00
2018-08-22T12:56:17.235Z,8.90
2018-08-22T12:58:45.648Z,9.10
2018-08-22T13:01:14.031Z,9.10
2018-08-22T13:03:42.304Z,8.90
2018-08-22T13:06:10.687Z,8.30
2018-08-22T13:08:39.204Z,8.80
2018-08-22T13:11:07.633Z,9.00
2018-08-22T13:13:36.009Z,9.00
2018-08-22T13:16:04.650Z,9.00
2018-08-22T13:18:32.936Z,9.20
2018-08-22T13:21:01.780Z,8.80
2018-08-22T13:23:30.799Z,9.20
2018-08-22T13:25:59.146Z,9.10
2018-08-22T13:28:27.580Z,8.90
2018-08-22T13:30:55.870Z,9.00
2018-08-22T13:33:24.202Z,9.00
2018-08-22T13:35:52.587Z,8.80
2018-08-22T13:38:20.952Z,8.90
2018-08-22T13:40:49.279Z,9.00
2018-08-22T13:43:17.579Z,9.00
2018-08-22T13:45:45.937Z,8.90
2018-08-22T13:48:14.318Z,9.00
2018-08-22T13:50:42.828Z,9.10
2018-08-22T13:53:11.130Z,8.70
2018-08-22T13:55:39.463Z,8.70
2018-08-22T13:58:07.889Z,8.20
2018-08-22T14:00:36.283Z,8.00
2018-08-22T14:03:04.727Z,8.70
2018-08-22T14:05:33.002Z,8.00
2018-08-22T14:08:01.382Z,8.70
2018-08-22T14:10:29.666Z,8.80
2018-08-22T14:12:58.254Z,8.60
2018-08-22T14:15:26.565Z,8.60
2018-08-22T14:17:54.878Z,9.00
2018-08-22T14:20:23.847Z,9.50
2018-08-22T14:22:52.178Z,9.50
2018-08-22T14:25:20.662Z,9.50
2018-08-22T14:27:49.029Z,9.80
2018-08-22T14:30:17.707Z,10.30
2018-08-22T14:32:46.127Z,10.90
2018-08-22T14:35:14.389Z,11.00
2018-08-22T14:37:43.036Z,11.90
2018-08-22T14:40:11.411Z,11.10
2018-08-22T14:42:39.729Z,11.20
2018-08-22T14:45:08.515Z,11.20
2018-08-22T14:47:36.882Z,11.90
2018-08-22T14:50:06.002Z,11.60
2018-08-22T14:52:34.333Z,11.80
2018-08-22T14:55:02.694Z,12.30
2018-08-22T14:57:31.012Z,12.60
2018-08-22T14:59:59.651Z,13.20
2018-08-22T15:02:27.973Z,13.80
2018-08-22T15:04:56.255Z,14.10
2018-08-22T15:07:24.577Z,14.70
2018-08-22T15:09:52.874Z,15.30
2018-08-22T15:12:21.190Z,15.80
2018-08-22T15:14:49.469Z,16.40
2018-08-22T15:17:17.904Z,16.60
2018-08-22T15:19:46.407Z,16.60
2018-08-22T15:22:14.712Z,17.50
2018-08-22T15:24:43.030Z,17.80
2018-08-22T15:27:11.628Z,17.90
2018-08-22T15:29:40.463Z,18.30
2018-08-22T15:32:09.032Z,18.80
2018-08-22T15:34:52.595Z,18.80
2018-08-22T15:37:21.774Z,19.30
2018-08-22T15:39:50.055Z,19.30
2018-08-22T15:42:19.781Z,19.60
2018-08-22T15:44:48.807Z,19.70
2018-08-22T15:47:17.577Z,20.10
2018-08-22T15:49:47.250Z,20.10
2018-08-22T15:52:15.874Z,20.40
2018-08-22T15:54:57.081Z,20.30
2018-08-22T15:57:25.482Z,20.40
2018-08-22T15:59:53.918Z,20.20
2018-08-22T16:02:22.358Z,20.90
2018-08-22T16:04:54.595Z,20.80
2018-08-22T16:07:23.047Z,21.00
2018-08-22T16:09:51.422Z,21.70
2018-08-22T16:12:19.829Z,20.60
2018-08-22T16:14:48.446Z,21.30
2018-08-22T16:17:16.974Z,21.10
2018-08-22T16:19:45.446Z,21.40
2018-08-22T16:22:13.891Z,21.00
2018-08-22T16:24:42.940Z,21.90
2018-08-22T16:27:11.422Z,21.20
2018-08-22T16:29:39.779Z,21.90
2018-08-22T16:32:08.115Z,22.00
2018-08-22T16:34:36.549Z,22.10
2018-08-22T16:37:04.872Z,22.10
2018-08-22T16:39:39.837Z,21.90
2018-08-22T16:42:08.724Z,22.40
2018-08-22T16:44:37.424Z,22.20
2018-08-22T16:47:05.939Z,22.40
2018-08-22T16:49:34.421Z,22.60
2018-08-22T16:52:02.691Z,22.90
2018-08-22T16:54:31.000Z,22.80
2018-08-22T16:56:59.316Z,22.80
2018-08-22T16:59:27.870Z,22.70
2018-08-22T17:01:56.193Z,23.00
2018-08-22T17:04:24.488Z,23.20
2018-08-22T17:06:52.897Z,23.30
2018-08-22T17:09:21.213Z,23.10
2018-08-22T17:11:49.617Z,23.60
2018-08-22T17:14:17.997Z,23.50
2018-08-22T17:16:46.346Z,23.50
2018-08-22T17:19:21.416Z,23.80
2018-08-22T17:21:49.728Z,24.30
2018-08-22T17:24:18.121Z,24.00
2018-08-22T17:26:46.661Z,24.10
2018-08-22T17:29:15.582Z,24.30
2018-08-22T17:31:45.624Z,23.70
2018-08-22T17:34:14.023Z,24.10
2018-08-22T17:36:42.535Z,24.10
2018-08-22T17:39:11.000Z,24.20
2018-08-22T17:41:39.527Z,24.40
2018-08-22T17:44:11.430Z,24.50
2018-08-22T17:46:49.475Z,24.60
2018-08-22T17:49:17.951Z,24.70
2018-08-22T17:52:04.271Z,24.70
2018-08-22T17:54:32.946Z,24.90
2018-08-22T17:57:16.094Z,24.70
2018-08-22T17:59:44.916Z,25.00
2018-08-22T18:02:13.507Z,25.10
2018-08-22T18:04:53.175Z,25.10
2018-08-22T18:07:21.528Z,25.20
2018-08-22T18:09:50.358Z,25.30
2018-08-22T18:12:19.366Z,25.50
2018-08-22T18:14:47.813Z,25.50
2018-08-22T18:17:18.876Z,25.60
2018-08-22T18:19:47.795Z,25.70
2018-08-22T18:22:16.861Z,25.90
2018-08-22T18:24:50.743Z,26.20
2018-08-22T18:27:19.218Z,26.50
2018-08-22T18:29:47.571Z,26.80
2018-08-22T18:32:16.317Z,27.10
2018-08-22T18:34:57.018Z,27.30
2018-08-22T18:37:26.747Z,27.70
2018-08-22T18:40:06.291Z,28.00
2018-08-22T18:42:34.629Z,28.40
2018-08-22T18:45:03.027Z,28.70
2018-08-22T18:47:32.811Z,29.00
2018-08-22T18:50:01.317Z,29.10
2018-08-22T18:52:30.024Z,29.10
2018-08-22T18:54:58.454Z,29.30
2018-08-22T18:57:27.620Z,29.40
2018-08-22T18:59:56.079Z,29.80
2018-08-22T19:02:24.527Z,29.40
2018-08-22T19:04:52.999Z,29.70
2018-08-22T19:07:21.339Z,29.40
2018-08-22T19:09:49.919Z,29.50
2018-08-22T19:12:19.506Z,29.70
2018-08-22T19:14:48.399Z,29.60
2018-08-22T19:17:17.953Z,29.70
2018-08-22T19:19:47.521Z,29.80
2018-08-22T19:22:17.260Z,29.80
2018-08-22T19:25:03.590Z,29.90
2018-08-22T19:27:32.904Z,30.00
2018-08-22T19:30:01.475Z,30.10
2018-08-22T19:32:29.883Z,30.10
2018-08-22T19:34:58.262Z,30.70
2018-08-22T19:37:27.511Z,30.30
2018-08-22T19:40:09.612Z,30.00
2018-08-22T19:42:39.724Z,30.10
2018-08-22T19:45:09.174Z,30.20
2018-08-22T19:47:39.515Z,30.40
2018-08-22T19:50:09.119Z,30.30
2018-08-22T19:52:37.479Z,30.40
2018-08-22T19:55:06.974Z,30.30
2018-08-22T19:57:36.691Z,30.60
2018-08-22T20:00:08.309Z,31.10
2018-08-22T20:02:37.226Z,30.80
2018-08-22T20:05:06.915Z,31.30
2018-08-22T20:07:35.354Z,30.80
2018-08-22T20:10:03.714Z,30.80
2018-08-22T20:12:49.772Z,30.90
2018-08-22T20:15:18.071Z,30.60
2018-08-22T20:17:48.654Z,31.00
2018-08-22T20:20:17.595Z,30.90
2018-08-22T20:22:50.325Z,30.90
2018-08-22T20:25:18.767Z,31.10
2018-08-22T20:27:47.095Z,31.10
2018-08-22T20:30:17.589Z,31.10
2018-08-22T20:32:57.412Z,31.00
2018-08-22T20:35:30.225Z,31.10
2018-08-22T20:38:00.074Z,31.10
2018-08-22T20:40:28.556Z,31.10
2018-08-22T20:42:56.935Z,31.20
2018-08-22T20:45:30.615Z,31.30
2018-08-22T20:48:04.398Z,31.30
2018-08-22T20:50:33.000Z,31.40
2018-08-22T20:53:04.581Z,31.50
2018-08-22T20:55:33.324Z,31.50
2018-08-22T20:58:02.499Z,31.50
2018-08-22T21:00:31.772Z,31.40
2018-08-22T21:03:00.269Z,31.60
2018-08-22T21:05:28.769Z,31.80
2018-08-22T21:07:57.071Z,32.00
2018-08-22T21:10:25.538Z,32.00
2018-08-22T21:12:53.879Z,32.10
2018-08-22T21:15:22.211Z,32.20
2018-08-22T21:17:50.814Z,32.40
2018-08-22T21:20:25.169Z,32.50
2018-08-22T21:22:54.615Z,32.90
2018-08-22T21:25:22.900Z,32.50
2018-08-22T21:27:51.916Z,32.50
2018-08-22T21:30:20.302Z,32.50
2018-08-22T21:32:49.199Z,32.80
2018-08-22T21:35:23.916Z,33.30
2018-08-22T21:37:52.632Z,32.80
2018-08-22T21:40:21.662Z,32.80
2018-08-22T21:42:50.044Z,33.10
2018-08-22T21:45:18.358Z,33.20
2018-08-22T21:47:46.715Z,33.40
2018-08-22T21:50:15.069Z,34.20
2018-08-22T21:53:01.717Z,33.30
2018-08-22T21:55:38.011Z,33.50
2018-08-22T21:58:07.428Z,33.60
2018-08-22T22:00:35.917Z,33.60
2018-08-22T22:03:04.534Z,33.80
2018-08-22T22:05:44.173Z,33.60
2018-08-22T22:08:12.571Z,33.80
2018-08-22T22:10:41.235Z,34.00
2018-08-22T22:13:10.416Z,34.10
2018-08-22T22:15:44.806Z,34.20
2018-08-22T22:18:13.195Z,34.50
2018-08-22T22:20:41.877Z,34.60
2018-08-22T22:23:10.248Z,34.80
2018-08-22T22:25:38.554Z,35.00
2018-08-22T22:28:06.952Z,35.10
2018-08-22T22:30:35.248Z,35.20
2018-08-22T22:33:03.627Z,35.30
2018-08-22T22:35:37.494Z,35.80
2018-08-22T22:38:08.958Z,36.70
2018-08-22T22:40:37.828Z,36.20
2018-08-22T22:43:12.756Z,36.20
2018-08-22T22:45:41.084Z,36.10
2018-08-22T22:48:09.515Z,36.00
2018-08-22T22:50:38.198Z,36.10
2018-08-22T22:53:06.679Z,36.30
2018-08-22T22:55:35.044Z,36.80
2018-08-22T22:58:03.777Z,36.30
2018-08-22T23:00:32.110Z,36.10
2018-08-22T23:03:07.239Z,36.20
2018-08-22T23:05:35.691Z,36.20
2018-08-22T23:08:04.094Z,36.60
2018-08-22T23:10:32.479Z,36.50
2018-08-22T23:13:00.787Z,36.60
2018-08-22T23:15:30.307Z,36.70
2018-08-22T23:18:00.760Z,36.70
2018-08-22T23:20:32.014Z,36.90
2018-08-22T23:23:00.499Z,37.10
2018-08-22T23:25:29.215Z,37.20
2018-08-22T23:27:57.681Z,37.20
2018-08-22T23:30:34.704Z,37.30
2018-08-22T23:33:03.552Z,37.50
2018-08-22T23:35:33.045Z,37.60
2018-08-22T23:38:03.688Z,37.60
2018-08-22T23:40:33.224Z,37.70
2018-08-22T23:43:01.530Z,38.30
2018-08-22T23:45:29.844Z,37.70
2018-08-22T23:47:58.122Z,37.70
2018-08-22T23:50:42.115Z,37.80
2018-08-22T23:53:10.679Z,38.10
2018-08-22T23:55:39.087Z,38.00
2018-08-22T23:58:07.519Z,38.10
